createdAt,value
2019-05-03T00:02:07.776Z,1.70
2019-05-03T00:04:51.641Z,1.80
2019-05-03T00:07:22.348Z,1.90
2019-05-03T00:09:52.048Z,1.80
2019-05-03T00:12:22.163Z,2.40
2019-05-03T00:14:53.523Z,2.20
2019-05-03T00:17:22.400Z,2.45
2019-05-03T00:19:52.740Z,2.62
2019-05-03T00:22:21.760Z,2.92
2019-05-03T00:25:04.637Z,3.25
2019-05-03T00:27:21.749Z,3.20
2019-05-03T00:29:52.399Z,3.22
2019-05-03T00:32:22.904Z,3.72
2019-05-03T00:34:53.259Z,3.92
2019-05-03T00:37:26.331Z,4.12
2019-05-03T00:39:56.700Z,3.90
2019-05-03T00:42:25.927Z,3.50
2019-05-03T00:44:54.654Z,3.12
2019-05-03T00:47:23.382Z,3.45
2019-05-03T00:49:52.103Z,3.22
2019-05-03T00:52:22.380Z,3.12
2019-05-03T00:54:52.828Z,2.92
2019-05-03T00:57:22.753Z,3.00
2019-05-03T00:59:52.845Z,3.10
2019-05-03T01:02:22.319Z,2.60
2019-05-03T01:04:51.811Z,2.80
2019-05-03T01:07:22.233Z,2.90
2019-05-03T01:09:51.800Z,2.60
2019-05-03T01:12:21.983Z,2.35
2019-05-03T01:14:52.389Z,2.10
2019-05-03T01:17:22.473Z,2.33
2019-05-03T01:19:52.146Z,2.10
2019-05-03T01:22:22.621Z,2.83
2019-05-03T01:24:51.832Z,2.10
2019-05-03T01:27:22.049Z,1.95
2019-05-03T01:29:51.998Z,2.02
2019-05-03T01:32:22.236Z,1.82
2019-05-03T01:34:52.351Z,2.27
2019-05-03T01:37:22.708Z,1.60
2019-05-03T01:39:52.679Z,1.70
2019-05-03T01:42:22.626Z,1.70
2019-05-03T01:44:52.229Z,1.40
2019-05-03T01:47:22.956Z,1.60
2019-05-03T01:50:02.740Z,1.17
2019-05-03T01:52:32.789Z,1.30
2019-05-03T01:55:03.300Z,1.70
2019-05-03T01:57:32.459Z,1.30
2019-05-03T02:00:02.880Z,1.10
2019-05-03T02:02:33.395Z,1.10
2019-05-03T02:05:15.417Z,1.30
2019-05-03T02:07:44.122Z,1.10
2019-05-03T02:10:13.092Z,0.90
2019-05-03T02:12:41.839Z,1.05
2019-05-03T02:15:11.898Z,1.10
2019-05-03T02:17:42.535Z,0.95
2019-05-03T02:20:12.664Z,0.90
2019-05-03T02:22:42.814Z,1.05
2019-05-03T02:25:12.390Z,1.20
2019-05-03T02:27:42.197Z,1.20
2019-05-03T02:30:14.161Z,0.98
2019-05-03T02:32:43.917Z,1.25
2019-05-03T02:35:14.037Z,1.10
2019-05-03T02:37:44.369Z,1.10
2019-05-03T02:40:14.290Z,1.37
2019-05-03T02:42:46.335Z,1.25
2019-05-03T02:45:25.716Z,1.67
2019-05-03T02:48:11.464Z,1.10
2019-05-03T02:50:40.187Z,1.10
2019-05-03T02:53:08.902Z,1.20
2019-05-03T02:55:37.651Z,1.50
2019-05-03T02:58:06.360Z,1.37
2019-05-03T03:00:58.839Z,1.50
2019-05-03T03:03:28.733Z,1.40
2019-05-03T03:05:59.071Z,1.30
2019-05-03T03:08:28.984Z,1.60
2019-05-03T03:10:59.859Z,1.12
2019-05-03T03:13:31.178Z,2.42
2019-05-03T03:16:10.546Z,1.42
2019-05-03T03:18:40.461Z,2.67
2019-05-03T03:21:12.313Z,2.00
2019-05-03T03:24:02.182Z,4.10
2019-05-03T03:26:39.309Z,3.35
2019-05-03T03:29:05.621Z,3.35
2019-05-03T03:31:57.415Z,8.18
2019-05-03T03:34:27.979Z,10.03
2019-05-03T03:37:03.799Z,6.87
2019-05-03T03:39:27.982Z,3.95
2019-05-03T03:41:57.223Z,3.52
2019-05-03T03:44:26.842Z,2.30
2019-05-03T03:46:57.659Z,6.90
2019-05-03T03:49:27.851Z,1.80
2019-05-03T03:51:58.079Z,2.33
2019-05-03T03:54:28.250Z,2.60
2019-05-03T03:57:03.600Z,2.62
2019-05-03T03:59:27.393Z,2.90
2019-05-03T04:01:56.623Z,2.30
2019-05-03T04:04:25.963Z,3.08
2019-05-03T04:06:58.372Z,3.30
2019-05-03T04:09:26.010Z,3.42
2019-05-03T04:11:56.855Z,5.05
2019-05-03T04:14:45.118Z,3.33
2019-05-03T04:17:17.513Z,3.85
2019-05-03T04:19:48.402Z,2.27
2019-05-03T04:22:17.113Z,1.80
2019-05-03T04:24:45.990Z,2.50
2019-05-03T04:27:22.955Z,3.58
2019-05-03T04:30:06.340Z,4.83
2019-05-03T04:32:35.961Z,3.85
2019-05-03T04:35:05.819Z,5.45
2019-05-03T04:37:35.921Z,3.30
2019-05-03T04:40:06.554Z,3.37
2019-05-03T04:42:35.823Z,2.77
2019-05-03T04:45:06.034Z,3.00
2019-05-03T04:47:35.756Z,3.40
2019-05-03T04:50:06.531Z,2.30
2019-05-03T04:52:36.129Z,2.75
2019-05-03T04:55:08.313Z,4.95
2019-05-03T04:57:45.141Z,1.50
2019-05-03T05:00:11.461Z,2.90
2019-05-03T05:02:40.560Z,2.20
2019-05-03T05:05:09.466Z,3.95
2019-05-03T05:07:38.259Z,3.37
2019-05-03T05:10:07.602Z,4.17
2019-05-03T05:12:36.344Z,6.70
2019-05-03T05:15:07.061Z,1.77
2019-05-03T05:17:40.418Z,2.80
2019-05-03T05:20:24.694Z,1.57
2019-05-03T05:22:54.380Z,2.42
2019-05-03T05:25:35.457Z,5.78
2019-05-03T05:28:09.063Z,2.12
2019-05-03T05:30:37.845Z,2.00
2019-05-03T05:33:08.321Z,4.67
2019-05-03T05:35:37.005Z,4.83
2019-05-03T05:38:05.743Z,2.47
2019-05-03T05:40:34.982Z,2.62
2019-05-03T05:43:04.944Z,5.95
2019-05-03T05:45:34.817Z,4.00
2019-05-03T05:48:05.390Z,2.10
2019-05-03T05:50:38.507Z,1.85
2019-05-03T05:53:07.238Z,1.65
2019-05-03T05:55:46.830Z,2.83
2019-05-03T05:58:26.223Z,2.52
2019-05-03T06:01:08.750Z,2.17
2019-05-03T06:03:37.462Z,2.83
2019-05-03T06:06:08.612Z,1.75
2019-05-03T06:08:48.148Z,3.83
2019-05-03T06:11:21.388Z,2.77
2019-05-03T06:13:54.639Z,3.05
2019-05-03T06:16:27.411Z,3.55
2019-05-03T06:18:57.789Z,9.80
2019-05-03T06:21:35.360Z,7.35
2019-05-03T06:24:21.275Z,5.50
2019-05-03T06:27:06.727Z,1.50
2019-05-03T06:29:35.459Z,3.55
2019-05-03T06:32:15.413Z,4.92
2019-05-03T06:34:45.546Z,3.42
2019-05-03T06:37:18.573Z,4.15
2019-05-03T06:39:47.300Z,1.90
2019-05-03T06:42:19.175Z,1.47
2019-05-03T06:44:46.413Z,2.80
2019-05-03T06:47:15.196Z,2.20
2019-05-03T06:49:48.176Z,3.60
2019-05-03T06:52:14.740Z,2.22
2019-05-03T06:54:44.914Z,2.17
2019-05-03T06:57:15.533Z,2.08
2019-05-03T06:59:51.907Z,2.17
2019-05-03T07:02:25.560Z,2.20
2019-05-03T07:04:57.071Z,2.92
2019-05-03T07:07:35.304Z,1.42
2019-05-03T07:10:22.075Z,2.00
2019-05-03T07:13:08.787Z,2.77
2019-05-03T07:15:46.813Z,2.12
2019-05-03T07:18:15.774Z,2.87
2019-05-03T07:20:46.311Z,1.90
2019-05-03T07:23:15.640Z,2.30
2019-05-03T07:25:44.779Z,3.58
2019-05-03T07:28:14.992Z,3.45
2019-05-03T07:30:45.373Z,3.40
2019-05-03T07:33:18.389Z,2.15
2019-05-03T07:35:47.120Z,2.85
2019-05-03T07:38:15.850Z,3.02
2019-05-03T07:40:44.664Z,2.58
2019-05-03T07:43:14.843Z,5.10
2019-05-03T07:45:47.382Z,2.22
2019-05-03T07:48:16.060Z,3.20
2019-05-03T07:50:44.831Z,2.33
2019-05-03T07:53:15.030Z,3.00
2019-05-03T07:56:06.615Z,2.37
2019-05-03T07:58:37.211Z,2.58
2019-05-03T08:01:09.993Z,2.98
2019-05-03T08:03:38.141Z,3.05
2019-05-03T08:06:06.860Z,2.47
2019-05-03T08:08:35.609Z,6.37
2019-05-03T08:11:05.305Z,6.62
2019-05-03T08:13:35.531Z,3.02
2019-05-03T08:16:05.890Z,2.75
2019-05-03T08:18:35.451Z,3.17
2019-05-03T08:21:05.605Z,2.52
2019-05-03T08:23:35.270Z,4.00
2019-05-03T08:26:05.847Z,5.45
2019-05-03T08:28:35.044Z,9.05
2019-05-03T08:31:17.499Z,3.30
2019-05-03T08:33:47.886Z,4.37
2019-05-03T08:36:16.595Z,4.65
2019-05-03T08:38:45.351Z,3.02
2019-05-03T08:41:25.051Z,5.58
2019-05-03T08:43:54.978Z,2.98
2019-05-03T08:46:25.313Z,3.12
2019-05-03T08:48:54.796Z,3.22
2019-05-03T08:51:25.012Z,4.47
2019-05-03T08:53:55.972Z,4.30
2019-05-03T08:56:24.701Z,2.22
2019-05-03T08:58:55.329Z,3.65
2019-05-03T09:01:25.196Z,4.97
2019-05-03T09:03:55.815Z,3.58
2019-05-03T09:06:24.856Z,3.77
2019-05-03T09:08:56.863Z,10.23
2019-05-03T09:11:31.847Z,2.77
2019-05-03T09:13:56.873Z,6.12
2019-05-03T09:16:25.736Z,3.40
2019-05-03T09:18:56.565Z,2.47
2019-05-03T09:21:25.637Z,2.77
2019-05-03T09:23:55.348Z,5.12
2019-05-03T09:26:28.963Z,2.95
2019-05-03T09:28:55.656Z,1.80
2019-05-03T09:31:24.982Z,2.45
2019-05-03T09:33:54.819Z,2.33
2019-05-03T09:36:25.361Z,2.65
2019-05-03T09:38:54.850Z,2.12
2019-05-03T09:41:25.582Z,1.42
2019-05-03T09:43:55.498Z,1.17
2019-05-03T09:46:26.585Z,1.70
2019-05-03T09:49:03.545Z,2.83
2019-05-03T09:51:25.520Z,2.62
2019-05-03T09:53:56.012Z,2.47
2019-05-03T09:56:26.408Z,1.40
2019-05-03T09:58:55.733Z,0.93
2019-05-03T10:01:25.585Z,2.20
2019-05-03T10:03:54.896Z,1.12
2019-05-03T10:06:28.857Z,1.15
2019-05-03T10:08:57.589Z,1.67
2019-05-03T10:11:26.703Z,2.17
2019-05-03T10:13:57.097Z,1.60
2019-05-03T10:16:27.500Z,3.50
2019-05-03T10:18:56.233Z,1.85
2019-05-03T10:21:26.639Z,2.52
2019-05-03T10:23:59.110Z,2.02
2019-05-03T10:26:28.011Z,1.92
2019-05-03T10:28:56.730Z,1.90
2019-05-03T10:31:27.329Z,7.40
2019-05-03T10:34:02.580Z,2.42
2019-05-03T10:36:40.253Z,2.08
2019-05-03T10:39:09.277Z,3.02
2019-05-03T10:41:38.132Z,11.03
2019-05-03T10:44:06.887Z,2.02
2019-05-03T10:46:35.993Z,1.87
2019-05-03T10:49:05.757Z,3.47
2019-05-03T10:52:00.040Z,2.83
2019-05-03T10:54:57.490Z,2.15
2019-05-03T10:57:27.911Z,3.67
2019-05-03T10:59:57.904Z,8.13
2019-05-03T11:02:48.299Z,6.60
2019-05-03T11:05:15.580Z,2.60
2019-05-03T11:07:45.702Z,2.30
2019-05-03T11:10:14.755Z,3.92
2019-05-03T11:12:46.555Z,4.42
2019-05-03T11:15:26.892Z,3.45
2019-05-03T11:17:55.680Z,2.80
2019-05-03T11:20:35.516Z,4.08
2019-05-03T11:23:06.218Z,3.80
2019-05-03T11:25:35.292Z,2.15
2019-05-03T11:28:05.880Z,1.00
2019-05-03T11:30:37.004Z,2.90
2019-05-03T11:33:07.376Z,3.08
2019-05-03T11:35:55.243Z,2.70
2019-05-03T11:38:26.565Z,5.20
2019-05-03T11:40:56.829Z,1.95
2019-05-03T11:43:26.781Z,2.10
2019-05-03T11:45:58.799Z,4.17
2019-05-03T11:48:27.532Z,4.40
2019-05-03T11:50:56.318Z,3.58
2019-05-03T11:53:25.295Z,4.05
2019-05-03T11:55:55.122Z,1.52
2019-05-03T11:58:27.107Z,3.95
2019-05-03T12:01:15.029Z,1.95
2019-05-03T12:03:44.988Z,1.65
2019-05-03T12:06:12.591Z,2.17
2019-05-03T12:08:41.444Z,1.52
2019-05-03T12:11:10.175Z,1.92
2019-05-03T12:13:38.983Z,11.63
2019-05-03T12:19:22.833Z,3.47
2019-05-03T12:21:49.231Z,1.70
2019-05-03T12:24:20.112Z,3.12
2019-05-03T12:27:17.819Z,2.70
2019-05-03T12:29:48.378Z,2.55
2019-05-03T12:32:34.628Z,2.17
2019-05-03T12:35:05.968Z,6.30
2019-05-03T12:37:35.346Z,2.75
2019-05-03T12:40:14.854Z,4.92
2019-05-03T12:42:47.453Z,4.42
2019-05-03T12:45:16.656Z,1.80
2019-05-03T12:47:46.120Z,2.72
2019-05-03T12:50:15.732Z,1.30
2019-05-03T12:52:50.319Z,1.20
2019-05-03T12:55:16.895Z,1.92
2019-05-03T12:57:55.603Z,1.27
2019-05-03T13:00:35.048Z,1.52
2019-05-03T13:03:24.570Z,2.00
2019-05-03T13:05:56.028Z,1.47
2019-05-03T13:08:36.956Z,1.87
2019-05-03T13:11:09.131Z,1.62
2019-05-03T13:13:37.952Z,3.55
2019-05-03T13:16:07.592Z,1.00
2019-05-03T13:18:36.533Z,2.80
2019-05-03T13:21:06.024Z,1.60
2019-05-03T13:23:35.644Z,1.60
2019-05-03T13:26:07.833Z,1.77
2019-05-03T13:28:38.333Z,2.47
2019-05-03T13:31:07.179Z,1.90
2019-05-03T13:33:36.001Z,1.90
2019-05-03T13:36:05.620Z,1.30
2019-05-03T13:38:37.088Z,3.35
2019-05-03T13:41:07.158Z,2.45
2019-05-03T13:43:41.858Z,2.80
2019-05-03T13:46:15.529Z,1.80
2019-05-03T13:48:48.946Z,2.30
2019-05-03T13:51:16.929Z,4.60
2019-05-03T13:53:49.963Z,3.92
2019-05-03T13:56:24.684Z,3.60
2019-05-03T13:58:56.656Z,1.60
2019-05-03T14:01:25.838Z,1.70
2019-05-03T14:04:06.706Z,1.65
2019-05-03T14:06:36.677Z,1.75
2019-05-03T14:09:06.882Z,1.55
2019-05-03T14:11:38.699Z,2.40
2019-05-03T14:14:07.397Z,2.67
2019-05-03T14:16:36.470Z,1.65
2019-05-03T14:19:07.092Z,2.30
2019-05-03T14:21:38.418Z,1.98
2019-05-03T14:24:11.190Z,4.47
2019-05-03T14:26:42.030Z,1.67
2019-05-03T14:29:10.890Z,14.23
2019-05-03T14:31:39.737Z,2.35
2019-05-03T14:34:08.507Z,22.00
2019-05-03T14:36:37.261Z,4.30
2019-05-03T14:39:10.471Z,1.45
2019-05-03T14:41:39.919Z,1.70
2019-05-03T14:44:08.962Z,2.20
2019-05-03T14:47:25.251Z,3.40
2019-05-03T14:50:06.371Z,3.90
2019-05-03T14:55:28.061Z,8.10
2019-05-03T15:01:04.864Z,1.20
2019-05-03T15:03:47.814Z,2.40
2019-05-03T15:06:24.797Z,2.62
2019-05-03T15:08:55.941Z,1.20
2019-05-03T15:11:26.943Z,2.00
2019-05-03T15:13:57.493Z,1.27
2019-05-03T15:16:27.551Z,1.62
2019-05-03T15:19:05.449Z,1.65
2019-05-03T15:21:40.908Z,1.42
2019-05-03T15:24:14.431Z,1.50
2019-05-03T15:26:47.031Z,9.87
2019-05-03T15:29:41.625Z,2.23
2019-05-03T15:32:22.600Z,2.60
2019-05-03T15:35:00.088Z,2.20
2019-05-03T15:37:46.896Z,1.70
2019-05-03T15:40:25.153Z,2.83
2019-05-03T15:43:21.371Z,2.47
2019-05-03T15:49:15.208Z,2.35
2019-05-03T15:51:47.718Z,2.02
2019-05-03T15:54:21.729Z,2.17
2019-05-03T15:56:59.640Z,3.08
2019-05-03T15:59:29.839Z,2.37
2019-05-03T16:01:59.749Z,7.35
2019-05-03T16:04:31.116Z,2.47
2019-05-03T16:09:38.872Z,2.20
2019-05-03T16:12:07.759Z,2.02
2019-05-03T16:14:36.660Z,2.50
2019-05-03T16:17:07.409Z,2.92
2019-05-03T16:19:39.732Z,3.20
2019-05-03T16:22:08.570Z,4.85
2019-05-03T16:24:37.315Z,3.65
2019-05-03T16:27:14.353Z,3.45
2019-05-03T16:29:44.501Z,7.70
2019-05-03T16:32:13.932Z,3.42
2019-05-03T16:34:44.384Z,4.67
2019-05-03T16:37:14.887Z,13.88
2019-05-03T16:39:45.378Z,9.23
2019-05-03T16:42:15.488Z,3.98
2019-05-03T16:44:45.270Z,4.10
2019-05-03T16:47:20.103Z,4.80
2019-05-03T16:49:50.436Z,5.72
2019-05-03T16:52:22.449Z,6.87
2019-05-03T16:54:52.664Z,7.22
2019-05-03T16:57:21.459Z,9.85
2019-05-03T16:59:50.325Z,11.25
2019-05-03T17:02:19.320Z,8.83
2019-05-03T17:04:56.630Z,9.33
2019-05-03T17:07:37.445Z,8.60
2019-05-03T17:10:15.351Z,10.80
2019-05-03T17:12:51.845Z,10.00
2019-05-03T17:15:25.181Z,7.55
2019-05-03T17:18:00.120Z,6.43
2019-05-03T17:20:36.397Z,7.05
2019-05-03T17:23:09.315Z,4.97
2019-05-03T17:25:53.376Z,4.30
2019-05-03T17:28:30.390Z,3.72
2019-05-03T17:31:12.253Z,3.10
2019-05-03T17:33:53.571Z,3.70
2019-05-03T17:36:34.415Z,4.75
2019-05-03T17:39:10.707Z,5.12
2019-05-03T17:41:56.417Z,9.08
2019-05-03T17:44:45.030Z,4.25
2019-05-03T17:50:20.278Z,4.92
2019-05-03T17:53:17.760Z,4.15
2019-05-03T17:56:12.887Z,3.80
2019-05-03T17:58:46.992Z,3.98
2019-05-03T18:01:36.143Z,3.92
2019-05-03T18:04:09.525Z,3.92
2019-05-03T18:10:33.446Z,6.35
2019-05-03T18:13:05.799Z,4.65
2019-05-03T18:15:55.330Z,5.97
2019-05-03T18:18:24.753Z,8.03
2019-05-03T18:20:55.781Z,6.40
2019-05-03T18:23:27.364Z,7.00
2019-05-03T18:26:00.609Z,6.53
2019-05-03T18:28:31.776Z,6.37
2019-05-03T18:31:14.459Z,6.45
2019-05-03T18:34:06.248Z,6.90
2019-05-03T18:36:32.285Z,17.57
2019-05-03T18:39:02.718Z,12.43
2019-05-03T18:41:34.589Z,14.15
2019-05-03T18:44:21.781Z,14.68
2019-05-03T18:47:02.575Z,13.68
2019-05-03T18:49:35.220Z,18.30
2019-05-03T18:52:10.320Z,16.17
2019-05-03T18:54:40.817Z,17.23
2019-05-03T18:57:15.624Z,18.02
2019-05-03T18:59:59.510Z,19.07
2019-05-03T19:02:28.586Z,18.23
2019-05-03T19:04:58.584Z,19.17
2019-05-03T19:07:35.637Z,17.32
2019-05-03T19:10:29.346Z,21.75
2019-05-03T19:12:59.968Z,20.52
2019-05-03T19:15:30.665Z,22.22
2019-05-03T19:18:07.752Z,22.00
2019-05-03T19:20:43.008Z,21.68
2019-05-03T19:23:12.168Z,22.17
2019-05-03T19:25:46.805Z,24.18
2019-05-03T19:28:14.503Z,25.62
2019-05-03T19:30:46.413Z,24.30
2019-05-03T19:33:15.184Z,25.68
2019-05-03T19:35:46.597Z,25.92
2019-05-03T19:38:15.278Z,29.42
2019-05-03T19:40:55.690Z,25.88
2019-05-03T19:43:32.095Z,26.73
2019-05-03T19:46:07.288Z,28.92
2019-05-03T19:48:48.886Z,32.88
2019-05-03T19:54:14.628Z,32.70
2019-05-03T19:56:50.122Z,33.00
2019-05-03T19:59:38.599Z,33.83
2019-05-03T20:02:09.063Z,36.30
2019-05-03T20:04:42.251Z,34.33
2019-05-03T20:07:15.736Z,39.75
2019-05-03T20:09:44.628Z,36.42
2019-05-03T20:12:15.147Z,35.38
2019-05-03T20:14:45.065Z,38.53
2019-05-03T20:17:14.825Z,36.03
2019-05-03T20:19:45.149Z,35.80
2019-05-03T20:22:15.157Z,35.08
2019-05-03T20:24:44.723Z,29.18
2019-05-03T20:27:15.154Z,34.03
2019-05-03T20:29:46.266Z,32.25
2019-05-03T20:32:18.281Z,28.27
2019-05-03T20:34:47.474Z,29.37
2019-05-03T20:37:19.493Z,32.40
2019-05-03T20:39:48.471Z,28.27
2019-05-03T20:42:35.680Z,24.98
2019-05-03T20:45:08.072Z,24.32
2019-05-03T20:47:41.182Z,25.62
2019-05-03T20:50:25.706Z,23.45
2019-05-03T20:53:01.974Z,24.82
2019-05-03T20:55:38.240Z,24.47
2019-05-03T20:58:08.472Z,24.55
2019-05-03T21:00:37.443Z,24.70
2019-05-03T21:03:06.270Z,25.45
2019-05-03T21:05:37.357Z,25.40
2019-05-03T21:08:05.699Z,24.80
2019-05-03T21:10:34.585Z,25.85
2019-05-03T21:13:05.302Z,26.70
2019-05-03T21:15:35.594Z,24.67
2019-05-03T21:18:17.807Z,26.30
2019-05-03T21:20:57.580Z,23.52
2019-05-03T21:23:28.152Z,26.42
2019-05-03T21:29:00.057Z,25.90
2019-05-03T21:31:35.203Z,28.70
2019-05-03T21:34:07.994Z,27.98
2019-05-03T21:36:38.748Z,28.75
2019-05-03T21:39:14.655Z,28.92
2019-05-03T21:41:45.698Z,29.55
2019-05-03T21:50:18.241Z,28.65
2019-05-03T21:52:57.345Z,27.40
2019-05-03T21:55:30.747Z,24.95
2019-05-03T21:58:01.024Z,29.82
2019-05-03T22:00:32.159Z,24.23
2019-05-03T22:03:05.186Z,24.77
2019-05-03T22:05:36.150Z,22.58
2019-05-03T22:08:08.032Z,25.10
2019-05-03T22:10:42.292Z,22.65
2019-05-03T22:13:18.799Z,21.62
2019-05-03T22:15:53.278Z,22.00
2019-05-03T22:18:28.708Z,21.05
2019-05-03T22:21:23.539Z,20.17
2019-05-03T22:24:01.887Z,20.32
2019-05-03T22:26:50.288Z,21.02
2019-05-03T22:29:19.607Z,20.75
2019-05-03T22:31:49.461Z,20.92
2019-05-03T22:34:18.603Z,21.80
2019-05-03T22:36:47.587Z,21.02
2019-05-03T22:39:16.642Z,22.32
2019-05-03T22:41:45.531Z,22.20
2019-05-03T22:44:17.051Z,21.62
2019-05-03T22:46:45.356Z,21.37
2019-05-03T22:49:15.622Z,22.10
2019-05-03T22:51:45.930Z,20.77
2019-05-03T22:54:15.470Z,20.32
2019-05-03T22:56:46.939Z,21.30
2019-05-03T22:59:30.241Z,20.00
2019-05-03T23:02:00.893Z,19.32
2019-05-03T23:04:39.542Z,19.20
2019-05-03T23:07:09.047Z,19.37
2019-05-03T23:09:48.598Z,18.65
2019-05-03T23:12:20.534Z,18.07
2019-05-03T23:14:55.876Z,17.20
2019-05-03T23:17:25.601Z,16.75
2019-05-03T23:20:21.016Z,16.90
2019-05-03T23:22:30.772Z,16.07
2019-05-03T23:25:07.368Z,18.07
2019-05-03T23:27:36.851Z,16.93
2019-05-03T23:30:07.170Z,16.95
2019-05-03T23:32:35.891Z,15.88
2019-05-03T23:35:08.401Z,16.17
2019-05-03T23:37:45.900Z,15.90
2019-05-03T23:40:17.872Z,14.40
2019-05-03T23:42:51.977Z,13.83
2019-05-03T23:45:28.100Z,14.80
2019-05-03T23:47:57.104Z,14.45
2019-05-03T23:50:26.028Z,13.38
2019-05-03T23:52:54.752Z,13.55
2019-05-03T23:55:25.358Z,13.70
2019-05-03T23:57:55.439Z,13.32
